sensor_id;sensor_type;location;lat;lon;timestamp;temperature;humidity
71254;HTU21D;59019;47.638;18.966;2023-01-19T00:00:07;5.01;104.18
71254;HTU21D;59019;47.638;18.966;2023-01-19T00:02:35;5.07;103.86
71254;HTU21D;59019;47.638;18.966;2023-01-19T00:05:01;5.00;103.21
71254;HTU21D;59019;47.638;18.966;2023-01-19T00:07:31;4.95;102.93
71254;HTU21D;59019;47.638;18.966;2023-01-19T00:09:57;4.97;103.18
71254;HTU21D;59019;47.638;18.966;2023-01-19T00:12:22;5.01;103.23
71254;HTU21D;59019;47.638;18.966;2023-01-19T00:14:48;4.95;102.84
71254;HTU21D;59019;47.638;18.966;2023-01-19T00:17:14;4.87;102.77
71254;HTU21D;59019;47.638;18.966;2023-01-19T00:19:39;4.90;102.76
71254;HTU21D;59019;47.638;18.966;2023-01-19T00:22:05;4.91;102.34
71254;HTU21D;59019;47.638;18.966;2023-01-19T00:24:31;4.92;102.21
71254;HTU21D;59019;47.638;18.966;2023-01-19T00:26:56;4.94;102.12
71254;HTU21D;59019;47.638;18.966;2023-01-19T00:29:22;4.90;102.14
71254;HTU21D;59019;47.638;18.966;2023-01-19T00:31:48;4.90;101.92
71254;HTU21D;59019;47.638;18.966;2023-01-19T00:34:14;4.86;101.78
71254;HTU21D;59019;47.638;18.966;2023-01-19T00:36:40;4.76;101.54
71254;HTU21D;59019;47.638;18.966;2023-01-19T00:39:06;4.66;101.07
71254;HTU21D;59019;47.638;18.966;2023-01-19T00:41:32;4.68;101.69
71254;HTU21D;59019;47.638;18.966;2023-01-19T00:44:16;4.72;101.68
71254;HTU21D;59019;47.638;18.966;2023-01-19T00:46:41;4.73;101.57
71254;HTU21D;59019;47.638;18.966;2023-01-19T00:49:07;4.78;101.85
71254;HTU21D;59019;47.638;18.966;2023-01-19T00:51:32;4.71;101.99
71254;HTU21D;59019;47.638;18.966;2023-01-19T00:53:58;4.75;102.54
71254;HTU21D;59019;47.638;18.966;2023-01-19T00:56:30;4.73;102.99
71254;HTU21D;59019;47.638;18.966;2023-01-19T00:58:55;4.69;103.75
71254;HTU21D;59019;47.638;18.966;2023-01-19T01:01:21;4.75;104.82
71254;HTU21D;59019;47.638;18.966;2023-01-19T01:03:46;4.78;104.77
71254;HTU21D;59019;47.638;18.966;2023-01-19T01:06:12;4.81;104.27
71254;HTU21D;59019;47.638;18.966;2023-01-19T01:08:37;4.77;103.40
71254;HTU21D;59019;47.638;18.966;2023-01-19T01:11:03;4.77;102.90
71254;HTU21D;59019;47.638;18.966;2023-01-19T01:13:29;4.73;102.31
71254;HTU21D;59019;47.638;18.966;2023-01-19T01:15:55;4.67;101.60
71254;HTU21D;59019;47.638;18.966;2023-01-19T01:18:21;4.68;101.64
71254;HTU21D;59019;47.638;18.966;2023-01-19T01:20:47;4.67;101.58
71254;HTU21D;59019;47.638;18.966;2023-01-19T01:23:13;4.67;101.48
71254;HTU21D;59019;47.638;18.966;2023-01-19T01:25:39;4.63;101.48
71254;HTU21D;59019;47.638;18.966;2023-01-19T01:28:05;4.63;101.32
71254;HTU21D;59019;47.638;18.966;2023-01-19T01:30:36;4.68;101.21
71254;HTU21D;59019;47.638;18.966;2023-01-19T01:33:06;4.62;100.58
71254;HTU21D;59019;47.638;18.966;2023-01-19T01:35:31;4.54;100.28
71254;HTU21D;59019;47.638;18.966;2023-01-19T01:37:59;4.49;100.53
71254;HTU21D;59019;47.638;18.966;2023-01-19T01:40:25;4.50;100.76
71254;HTU21D;59019;47.638;18.966;2023-01-19T01:42:50;4.50;100.91
71254;HTU21D;59019;47.638;18.966;2023-01-19T01:48:19;4.41;100.86
71254;HTU21D;59019;47.638;18.966;2023-01-19T01:50:58;4.42;101.00
71254;HTU21D;59019;47.638;18.966;2023-01-19T01:53:45;4.36;100.90
71254;HTU21D;59019;47.638;18.966;2023-01-19T01:56:16;4.36;101.22
71254;HTU21D;59019;47.638;18.966;2023-01-19T01:58:44;4.34;100.80
71254;HTU21D;59019;47.638;18.966;2023-01-19T02:01:10;4.29;100.90
71254;HTU21D;59019;47.638;18.966;2023-01-19T02:03:55;4.28;100.97
71254;HTU21D;59019;47.638;18.966;2023-01-19T02:06:21;4.29;101.17
71254;HTU21D;59019;47.638;18.966;2023-01-19T02:08:58;4.30;101.22
71254;HTU21D;59019;47.638;18.966;2023-01-19T02:11:45;4.30;101.10
71254;HTU21D;59019;47.638;18.966;2023-01-19T02:14:29;4.30;100.84
71254;HTU21D;59019;47.638;18.966;2023-01-19T02:16:54;4.29;100.50
71254;HTU21D;59019;47.638;18.966;2023-01-19T02:19:30;4.24;100.66
71254;HTU21D;59019;47.638;18.966;2023-01-19T02:22:05;4.27;100.53
71254;HTU21D;59019;47.638;18.966;2023-01-19T02:24:32;4.20;100.19
71254;HTU21D;59019;47.638;18.966;2023-01-19T02:26:58;4.15;100.64
71254;HTU21D;59019;47.638;18.966;2023-01-19T02:29:25;4.16;100.76
71254;HTU21D;59019;47.638;18.966;2023-01-19T02:31:51;4.14;100.76
71254;HTU21D;59019;47.638;18.966;2023-01-19T02:34:19;4.17;100.87
71254;HTU21D;59019;47.638;18.966;2023-01-19T02:36:52;4.16;100.90
71254;HTU21D;59019;47.638;18.966;2023-01-19T02:39:26;4.10;100.55
71254;HTU21D;59019;47.638;18.966;2023-01-19T02:42:01;4.09;100.19
71254;HTU21D;59019;47.638;18.966;2023-01-19T02:44:28;4.04;99.73
71254;HTU21D;59019;47.638;18.966;2023-01-19T02:46:55;3.97;99.96
71254;HTU21D;59019;47.638;18.966;2023-01-19T02:49:21;4.03;100.35
71254;HTU21D;59019;47.638;18.966;2023-01-19T02:51:47;4.01;100.38
71254;HTU21D;59019;47.638;18.966;2023-01-19T03:03:14;4.07;102.89
71254;HTU21D;59019;47.638;18.966;2023-01-19T03:06:06;4.00;103.57
71254;HTU21D;59019;47.638;18.966;2023-01-19T03:08:52;3.94;102.70
71254;HTU21D;59019;47.638;18.966;2023-01-19T03:11:19;3.94;101.67
71254;HTU21D;59019;47.638;18.966;2023-01-19T03:14:03;3.80;100.10
71254;HTU21D;59019;47.638;18.966;2023-01-19T03:16:45;3.83;99.77
71254;HTU21D;59019;47.638;18.966;2023-01-19T03:21:51;3.64;99.55
71254;HTU21D;59019;47.638;18.966;2023-01-19T03:24:21;3.54;98.88
71254;HTU21D;59019;47.638;18.966;2023-01-19T03:26:52;3.50;99.44
71254;HTU21D;59019;47.638;18.966;2023-01-19T03:29:23;3.53;99.49
71254;HTU21D;59019;47.638;18.966;2023-01-19T03:31:53;3.45;99.90
71254;HTU21D;59019;47.638;18.966;2023-01-19T03:34:21;3.48;99.95
71254;HTU21D;59019;47.638;18.966;2023-01-19T03:36:52;3.48;99.58
71254;HTU21D;59019;47.638;18.966;2023-01-19T03:39:23;3.48;99.52
71254;HTU21D;59019;47.638;18.966;2023-01-19T03:42:01;3.33;99.29
71254;HTU21D;59019;47.638;18.966;2023-01-19T03:44:29;3.21;99.83
71254;HTU21D;59019;47.638;18.966;2023-01-19T03:46:57;3.16;100.22
71254;HTU21D;59019;47.638;18.966;2023-01-19T03:49:23;3.12;100.22
71254;HTU21D;59019;47.638;18.966;2023-01-19T03:51:50;3.09;100.22
71254;HTU21D;59019;47.638;18.966;2023-01-19T03:54:19;3.09;100.68
71254;HTU21D;59019;47.638;18.966;2023-01-19T03:56:44;3.06;101.10
71254;HTU21D;59019;47.638;18.966;2023-01-19T03:59:10;3.04;101.12
71254;HTU21D;59019;47.638;18.966;2023-01-19T04:01:35;3.05;100.64
71254;HTU21D;59019;47.638;18.966;2023-01-19T04:04:01;3.09;100.51
71254;HTU21D;59019;47.638;18.966;2023-01-19T04:06:26;3.06;100.22
71254;HTU21D;59019;47.638;18.966;2023-01-19T04:08:52;2.98;100.89
71254;HTU21D;59019;47.638;18.966;2023-01-19T04:11:18;2.91;100.70
71254;HTU21D;59019;47.638;18.966;2023-01-19T04:13:43;2.89;100.79
71254;HTU21D;59019;47.638;18.966;2023-01-19T04:16:10;2.85;100.82
71254;HTU21D;59019;47.638;18.966;2023-01-19T04:18:36;2.88;100.79
71254;HTU21D;59019;47.638;18.966;2023-01-19T04:21:03;2.86;100.94
71254;HTU21D;59019;47.638;18.966;2023-01-19T04:23:29;2.89;101.11
71254;HTU21D;59019;47.638;18.966;2023-01-19T04:26:03;2.81;100.98
71254;HTU21D;59019;47.638;18.966;2023-01-19T04:28:28;2.83;101.75
71254;HTU21D;59019;47.638;18.966;2023-01-19T04:30:55;2.93;100.98
71254;HTU21D;59019;47.638;18.966;2023-01-19T04:33:21;2.83;101.47
71254;HTU21D;59019;47.638;18.966;2023-01-19T04:35:48;3.01;101.54
71254;HTU21D;59019;47.638;18.966;2023-01-19T04:38:14;3.02;103.70
71254;HTU21D;59019;47.638;18.966;2023-01-19T04:40:40;3.02;104.16
71254;HTU21D;59019;47.638;18.966;2023-01-19T04:43:06;3.16;104.71
71254;HTU21D;59019;47.638;18.966;2023-01-19T04:45:32;3.23;104.37
71254;HTU21D;59019;47.638;18.966;2023-01-19T04:47:57;3.33;105.84
71254;HTU21D;59019;47.638;18.966;2023-01-19T04:50:24;3.42;105.66
71254;HTU21D;59019;47.638;18.966;2023-01-19T04:52:50;3.43;105.08
71254;HTU21D;59019;47.638;18.966;2023-01-19T04:55:16;3.46;104.30
71254;HTU21D;59019;47.638;18.966;2023-01-19T04:57:41;3.48;103.25
71254;HTU21D;59019;47.638;18.966;2023-01-19T05:00:08;3.29;101.92
71254;HTU21D;59019;47.638;18.966;2023-01-19T05:02:34;3.16;101.75
71254;HTU21D;59019;47.638;18.966;2023-01-19T05:05:00;3.29;102.34
71254;HTU21D;59019;47.638;18.966;2023-01-19T05:07:26;3.26;102.37
71254;HTU21D;59019;47.638;18.966;2023-01-19T05:09:51;3.05;102.03
71254;HTU21D;59019;47.638;18.966;2023-01-19T05:12:18;3.02;102.04
71254;HTU21D;59019;47.638;18.966;2023-01-19T05:14:44;3.12;101.93
71254;HTU21D;59019;47.638;18.966;2023-01-19T05:17:09;3.20;102.17
71254;HTU21D;59019;47.638;18.966;2023-01-19T05:19:35;3.20;102.16
71254;HTU21D;59019;47.638;18.966;2023-01-19T05:22:04;3.27;102.04
71254;HTU21D;59019;47.638;18.966;2023-01-19T05:24:30;3.32;101.90
71254;HTU21D;59019;47.638;18.966;2023-01-19T05:26:56;3.27;101.60
71254;HTU21D;59019;47.638;18.966;2023-01-19T05:29:21;3.13;101.41
71254;HTU21D;59019;47.638;18.966;2023-01-19T05:31:47;3.00;101.57
71254;HTU21D;59019;47.638;18.966;2023-01-19T05:34:13;2.99;101.57
71254;HTU21D;59019;47.638;18.966;2023-01-19T05:36:39;2.88;102.17
71254;HTU21D;59019;47.638;18.966;2023-01-19T05:39:05;2.98;102.70
71254;HTU21D;59019;47.638;18.966;2023-01-19T05:41:30;2.87;102.23
71254;HTU21D;59019;47.638;18.966;2023-01-19T05:43:56;2.84;102.41
71254;HTU21D;59019;47.638;18.966;2023-01-19T05:46:22;2.93;102.53
71254;HTU21D;59019;47.638;18.966;2023-01-19T05:48:49;3.02;102.55
71254;HTU21D;59019;47.638;18.966;2023-01-19T05:51:15;3.13;102.60
71254;HTU21D;59019;47.638;18.966;2023-01-19T05:53:40;3.14;102.51
71254;HTU21D;59019;47.638;18.966;2023-01-19T05:56:07;3.29;104.15
71254;HTU21D;59019;47.638;18.966;2023-01-19T05:58:34;3.27;103.77
71254;HTU21D;59019;47.638;18.966;2023-01-19T06:01:04;3.35;103.84
71254;HTU21D;59019;47.638;18.966;2023-01-19T06:03:32;3.43;104.24
71254;HTU21D;59019;47.638;18.966;2023-01-19T06:05:58;3.48;103.98
71254;HTU21D;59019;47.638;18.966;2023-01-19T06:08:25;3.50;103.60
71254;HTU21D;59019;47.638;18.966;2023-01-19T06:10:50;3.60;103.02
71254;HTU21D;59019;47.638;18.966;2023-01-19T06:13:16;3.54;102.06
71254;HTU21D;59019;47.638;18.966;2023-01-19T06:15:42;3.45;101.66
71254;HTU21D;59019;47.638;18.966;2023-01-19T06:18:12;3.27;101.44
71254;HTU21D;59019;47.638;18.966;2023-01-19T06:20:39;3.34;101.92
71254;HTU21D;59019;47.638;18.966;2023-01-19T06:23:04;3.29;101.93
71254;HTU21D;59019;47.638;18.966;2023-01-19T06:25:30;3.27;101.79
71254;HTU21D;59019;47.638;18.966;2023-01-19T06:27:56;3.21;102.28
71254;HTU21D;59019;47.638;18.966;2023-01-19T06:30:21;3.14;102.09
71254;HTU21D;59019;47.638;18.966;2023-01-19T06:32:47;3.11;102.54
71254;HTU21D;59019;47.638;18.966;2023-01-19T06:35:13;3.13;102.59
71254;HTU21D;59019;47.638;18.966;2023-01-19T06:37:39;3.01;102.51
71254;HTU21D;59019;47.638;18.966;2023-01-19T06:40:05;3.02;102.76
71254;HTU21D;59019;47.638;18.966;2023-01-19T06:42:31;3.15;102.60
71254;HTU21D;59019;47.638;18.966;2023-01-19T06:44:56;3.02;103.20
71254;HTU21D;59019;47.638;18.966;2023-01-19T06:47:22;3.14;104.10
71254;HTU21D;59019;47.638;18.966;2023-01-19T06:49:47;3.27;104.77
71254;HTU21D;59019;47.638;18.966;2023-01-19T06:52:13;3.32;105.55
71254;HTU21D;59019;47.638;18.966;2023-01-19T06:54:43;3.31;105.46
71254;HTU21D;59019;47.638;18.966;2023-01-19T06:57:09;3.27;104.92
71254;HTU21D;59019;47.638;18.966;2023-01-19T06:59:37;3.27;104.26
71254;HTU21D;59019;47.638;18.966;2023-01-19T07:02:03;3.34;103.62
71254;HTU21D;59019;47.638;18.966;2023-01-19T07:04:29;3.46;102.95
71254;HTU21D;59019;47.638;18.966;2023-01-19T07:06:54;3.47;102.17
71254;HTU21D;59019;47.638;18.966;2023-01-19T07:09:20;3.45;102.28
71254;HTU21D;59019;47.638;18.966;2023-01-19T07:11:46;3.59;102.57
71254;HTU21D;59019;47.638;18.966;2023-01-19T07:14:13;3.70;102.68
71254;HTU21D;59019;47.638;18.966;2023-01-19T07:16:38;3.78;102.29
71254;HTU21D;59019;47.638;18.966;2023-01-19T07:19:04;3.78;101.79
71254;HTU21D;59019;47.638;18.966;2023-01-19T07:21:30;3.87;101.63
71254;HTU21D;59019;47.638;18.966;2023-01-19T07:23:56;3.87;101.30
71254;HTU21D;59019;47.638;18.966;2023-01-19T07:26:22;3.79;100.96
71254;HTU21D;59019;47.638;18.966;2023-01-19T07:28:50;3.91;101.05
71254;HTU21D;59019;47.638;18.966;2023-01-19T07:31:16;4.01;101.03
71254;HTU21D;59019;47.638;18.966;2023-01-19T07:33:42;3.87;100.77
71254;HTU21D;59019;47.638;18.966;2023-01-19T07:36:09;3.92;100.91
71254;HTU21D;59019;47.638;18.966;2023-01-19T07:38:34;4.01;101.11
71254;HTU21D;59019;47.638;18.966;2023-01-19T07:41:07;4.03;101.38
71254;HTU21D;59019;47.638;18.966;2023-01-19T07:43:33;4.09;102.02
71254;HTU21D;59019;47.638;18.966;2023-01-19T07:46:01;4.10;101.61
71254;HTU21D;59019;47.638;18.966;2023-01-19T07:48:27;4.13;101.08
71254;HTU21D;59019;47.638;18.966;2023-01-19T07:50:58;4.21;102.16
71254;HTU21D;59019;47.638;18.966;2023-01-19T07:53:24;4.22;101.02
71254;HTU21D;59019;47.638;18.966;2023-01-19T07:55:54;4.19;99.70
71254;HTU21D;59019;47.638;18.966;2023-01-19T07:58:21;4.30;99.38
71254;HTU21D;59019;47.638;18.966;2023-01-19T08:00:47;4.21;98.80
71254;HTU21D;59019;47.638;18.966;2023-01-19T08:03:13;4.17;98.90
71254;HTU21D;59019;47.638;18.966;2023-01-19T08:05:38;4.14;99.22
71254;HTU21D;59019;47.638;18.966;2023-01-19T08:08:04;4.09;99.37
71254;HTU21D;59019;47.638;18.966;2023-01-19T08:10:50;4.15;99.63
71254;HTU21D;59019;47.638;18.966;2023-01-19T08:13:35;4.20;99.94
71254;HTU21D;59019;47.638;18.966;2023-01-19T08:16:01;4.17;100.06
71254;HTU21D;59019;47.638;18.966;2023-01-19T08:18:27;4.14;100.08
71254;HTU21D;59019;47.638;18.966;2023-01-19T08:20:57;4.04;100.10
71254;HTU21D;59019;47.638;18.966;2023-01-19T08:23:23;4.10;100.30
71254;HTU21D;59019;47.638;18.966;2023-01-19T08:25:48;3.88;100.48
71254;HTU21D;59019;47.638;18.966;2023-01-19T08:28:15;4.02;100.56
71254;HTU21D;59019;47.638;18.966;2023-01-19T08:30:41;4.12;100.47
71254;HTU21D;59019;47.638;18.966;2023-01-19T08:33:11;4.24;100.73
71254;HTU21D;59019;47.638;18.966;2023-01-19T08:35:41;4.35;100.86
71254;HTU21D;59019;47.638;18.966;2023-01-19T08:38:08;4.42;100.96
71254;HTU21D;59019;47.638;18.966;2023-01-19T08:40:36;4.47;100.95
71254;HTU21D;59019;47.638;18.966;2023-01-19T08:43:04;4.51;100.83
71254;HTU21D;59019;47.638;18.966;2023-01-19T08:45:33;4.53;100.59
71254;HTU21D;59019;47.638;18.966;2023-01-19T08:47:59;4.53;100.43
71254;HTU21D;59019;47.638;18.966;2023-01-19T08:50:27;4.46;100.12
71254;HTU21D;59019;47.638;18.966;2023-01-19T08:53:01;4.47;100.36
71254;HTU21D;59019;47.638;18.966;2023-01-19T08:55:28;4.27;100.51
71254;HTU21D;59019;47.638;18.966;2023-01-19T08:57:56;4.32;100.56
71254;HTU21D;59019;47.638;18.966;2023-01-19T09:00:22;4.36;100.77
71254;HTU21D;59019;47.638;18.966;2023-01-19T09:02:49;4.43;100.96
71254;HTU21D;59019;47.638;18.966;2023-01-19T09:05:15;4.53;101.02
71254;HTU21D;59019;47.638;18.966;2023-01-19T09:07:43;4.58;100.76
71254;HTU21D;59019;47.638;18.966;2023-01-19T09:10:10;4.66;100.80
71254;HTU21D;59019;47.638;18.966;2023-01-19T09:12:35;4.67;100.73
71254;HTU21D;59019;47.638;18.966;2023-01-19T09:15:01;4.73;100.64
71254;HTU21D;59019;47.638;18.966;2023-01-19T09:17:27;4.78;100.57
71254;HTU21D;59019;47.638;18.966;2023-01-19T09:19:52;4.78;101.06
71254;HTU21D;59019;47.638;18.966;2023-01-19T09:22:18;4.77;102.20
71254;HTU21D;59019;47.638;18.966;2023-01-19T09:24:43;4.77;103.45
71254;HTU21D;59019;47.638;18.966;2023-01-19T09:27:09;4.56;101.47
71254;HTU21D;59019;47.638;18.966;2023-01-19T09:29:34;4.56;101.06
71254;HTU21D;59019;47.638;18.966;2023-01-19T09:32:01;4.57;101.49
71254;HTU21D;59019;47.638;18.966;2023-01-19T09:34:26;4.56;101.34
71254;HTU21D;59019;47.638;18.966;2023-01-19T09:36:52;4.52;100.70
71254;HTU21D;59019;47.638;18.966;2023-01-19T09:39:18;4.54;100.76
71254;HTU21D;59019;47.638;18.966;2023-01-19T09:41:47;4.60;101.86
71254;HTU21D;59019;47.638;18.966;2023-01-19T09:44:21;4.54;101.68
71254;HTU21D;59019;47.638;18.966;2023-01-19T09:46:53;4.54;101.22
71254;HTU21D;59019;47.638;18.966;2023-01-19T09:49:30;4.42;100.22
71254;HTU21D;59019;47.638;18.966;2023-01-19T09:51:57;4.42;99.51
71254;HTU21D;59019;47.638;18.966;2023-01-19T09:54:35;4.47;99.11
71254;HTU21D;59019;47.638;18.966;2023-01-19T09:57:09;4.31;99.40
71254;HTU21D;59019;47.638;18.966;2023-01-19T09:59:35;4.29;99.74
71254;HTU21D;59019;47.638;18.966;2023-01-19T10:05:37;4.05;99.86
71254;HTU21D;59019;47.638;18.966;2023-01-19T10:08:28;3.93;100.30
71254;HTU21D;59019;47.638;18.966;2023-01-19T10:10:57;3.73;101.32
71254;HTU21D;59019;47.638;18.966;2023-01-19T10:19:32;3.32;103.21
71254;HTU21D;59019;47.638;18.966;2023-01-19T10:22:06;3.33;102.48
71254;HTU21D;59019;47.638;18.966;2023-01-19T10:24:39;3.36;102.43
71254;HTU21D;59019;47.638;18.966;2023-01-19T10:27:16;3.31;102.29
71254;HTU21D;59019;47.638;18.966;2023-01-19T10:29:43;3.20;102.71
71254;HTU21D;59019;47.638;18.966;2023-01-19T10:32:16;3.25;102.76
71254;HTU21D;59019;47.638;18.966;2023-01-19T10:34:44;3.30;102.60
71254;HTU21D;59019;47.638;18.966;2023-01-19T10:39:50;3.20;102.86
71254;HTU21D;59019;47.638;18.966;2023-01-19T10:42:16;3.28;102.77
71254;HTU21D;59019;47.638;18.966;2023-01-19T10:44:43;3.13;103.19
71254;HTU21D;59019;47.638;18.966;2023-01-19T10:47:17;3.10;103.73
71254;HTU21D;59019;47.638;18.966;2023-01-19T10:49:43;3.08;104.11
71254;HTU21D;59019;47.638;18.966;2023-01-19T10:54:54;3.13;104.15
71254;HTU21D;59019;47.638;18.966;2023-01-19T10:57:35;3.17;104.27
71254;HTU21D;59019;47.638;18.966;2023-01-19T11:00:27;3.19;105.45
71254;HTU21D;59019;47.638;18.966;2023-01-19T11:02:52;3.13;106.01
71254;HTU21D;59019;47.638;18.966;2023-01-19T11:05:27;3.25;106.21
71254;HTU21D;59019;47.638;18.966;2023-01-19T11:07:53;3.27;106.27
71254;HTU21D;59019;47.638;18.966;2023-01-19T11:10:20;3.43;105.93
71254;HTU21D;59019;47.638;18.966;2023-01-19T11:13:00;3.48;104.84
71254;HTU21D;59019;47.638;18.966;2023-01-19T11:15:35;3.52;103.94
71254;HTU21D;59019;47.638;18.966;2023-01-19T11:18:05;3.60;103.41
71254;HTU21D;59019;47.638;18.966;2023-01-19T11:21:05;3.54;102.89
71254;HTU21D;59019;47.638;18.966;2023-01-19T11:23:36;3.50;102.40
71254;HTU21D;59019;47.638;18.966;2023-01-19T11:26:15;3.54;102.47
71254;HTU21D;59019;47.638;18.966;2023-01-19T11:28:49;3.48;102.11
71254;HTU21D;59019;47.638;18.966;2023-01-19T11:31:18;3.61;102.38
71254;HTU21D;59019;47.638;18.966;2023-01-19T11:33:57;3.41;102.06
71254;HTU21D;59019;47.638;18.966;2023-01-19T11:36:28;3.35;102.19
71254;HTU21D;59019;47.638;18.966;2023-01-19T11:41:34;3.32;102.80
71254;HTU21D;59019;47.638;18.966;2023-01-19T11:44:18;3.52;102.59
71254;HTU21D;59019;47.638;18.966;2023-01-19T11:46:47;3.59;102.03
71254;HTU21D;59019;47.638;18.966;2023-01-19T11:54:28;3.36;101.46
71254;HTU21D;59019;47.638;18.966;2023-01-19T11:56:58;3.29;101.94
71254;HTU21D;59019;47.638;18.966;2023-01-19T11:59:24;3.18;102.39
71254;HTU21D;59019;47.638;18.966;2023-01-19T12:01:53;3.38;102.78
71254;HTU21D;59019;47.638;18.966;2023-01-19T12:04:34;3.29;102.52
71254;HTU21D;59019;47.638;18.966;2023-01-19T12:07:04;3.32;102.88
71254;HTU21D;59019;47.638;18.966;2023-01-19T12:09:37;3.29;102.88
71254;HTU21D;59019;47.638;18.966;2023-01-19T12:12:12;3.23;103.20
71254;HTU21D;59019;47.638;18.966;2023-01-19T12:14:52;3.32;103.07
71254;HTU21D;59019;47.638;18.966;2023-01-19T12:17:25;3.33;103.06
71254;HTU21D;59019;47.638;18.966;2023-01-19T12:22:49;3.29;103.17
71254;HTU21D;59019;47.638;18.966;2023-01-19T12:25:20;3.05;103.59
71254;HTU21D;59019;47.638;18.966;2023-01-19T12:27:48;3.01;104.20
71254;HTU21D;59019;47.638;18.966;2023-01-19T12:30:27;3.19;103.69
71254;HTU21D;59019;47.638;18.966;2023-01-19T12:33:46;2.96;103.10
71254;HTU21D;59019;47.638;18.966;2023-01-19T12:41:35;3.08;103.44
71254;HTU21D;59019;47.638;18.966;2023-01-19T12:49:49;2.93;103.76
71254;HTU21D;59019;47.638;18.966;2023-01-19T13:02:48;2.88;104.82
71254;HTU21D;59019;47.638;18.966;2023-01-19T13:05:24;2.85;104.67
71254;HTU21D;59019;47.638;18.966;2023-01-19T13:13:22;2.75;104.80
71254;HTU21D;59019;47.638;18.966;2023-01-19T13:15:48;2.79;105.24
71254;HTU21D;59019;47.638;18.966;2023-01-19T13:18:25;2.89;104.71
71254;HTU21D;59019;47.638;18.966;2023-01-19T13:23:24;3.03;104.31
71254;HTU21D;59019;47.638;18.966;2023-01-19T13:26:00;3.04;104.10
71254;HTU21D;59019;47.638;18.966;2023-01-19T13:28:40;3.04;104.06
71254;HTU21D;59019;47.638;18.966;2023-01-19T13:31:07;2.91;103.77
71254;HTU21D;59019;47.638;18.966;2023-01-19T13:33:54;3.02;103.79
71254;HTU21D;59019;47.638;18.966;2023-01-19T13:36:36;2.84;103.91
71254;HTU21D;59019;47.638;18.966;2023-01-19T13:39:10;2.69;104.69
71254;HTU21D;59019;47.638;18.966;2023-01-19T13:41:38;2.79;104.20
71254;HTU21D;59019;47.638;18.966;2023-01-19T13:46:53;2.66;104.06
71254;HTU21D;59019;47.638;18.966;2023-01-19T13:49:29;2.70;104.44
71254;HTU21D;59019;47.638;18.966;2023-01-19T13:52:22;2.72;104.19
71254;HTU21D;59019;47.638;18.966;2023-01-19T13:54:49;2.78;104.00
71254;HTU21D;59019;47.638;18.966;2023-01-19T13:57:37;2.53;104.27
71254;HTU21D;59019;47.638;18.966;2023-01-19T14:10:25;2.57;104.22
71254;HTU21D;59019;47.638;18.966;2023-01-19T14:12:58;2.53;104.31
71254;HTU21D;59019;47.638;18.966;2023-01-19T14:15:24;2.59;104.18
71254;HTU21D;59019;47.638;18.966;2023-01-19T14:34:41;2.36;102.91
71254;HTU21D;59019;47.638;18.966;2023-01-19T14:39:54;2.39;103.25
71254;HTU21D;59019;47.638;18.966;2023-01-19T14:42:24;2.43;102.99
71254;HTU21D;59019;47.638;18.966;2023-01-19T14:44:52;2.36;102.54
71254;HTU21D;59019;47.638;18.966;2023-01-19T14:47:27;2.32;102.92
71254;HTU21D;59019;47.638;18.966;2023-01-19T14:49:57;2.15;102.91
71254;HTU21D;59019;47.638;18.966;2023-01-19T14:52:34;2.24;103.34
71254;HTU21D;59019;47.638;18.966;2023-01-19T14:55:01;2.38;103.15
71254;HTU21D;59019;47.638;18.966;2023-01-19T14:57:33;2.19;103.02
71254;HTU21D;59019;47.638;18.966;2023-01-19T14:59:59;2.11;103.02
71254;HTU21D;59019;47.638;18.966;2023-01-19T15:02:25;2.14;103.59
71254;HTU21D;59019;47.638;18.966;2023-01-19T15:04:50;2.32;102.93
71254;HTU21D;59019;47.638;18.966;2023-01-19T15:07:21;2.24;102.72
71254;HTU21D;59019;47.638;18.966;2023-01-19T15:09:49;2.21;102.80
71254;HTU21D;59019;47.638;18.966;2023-01-19T15:12:16;1.92;103.70
71254;HTU21D;59019;47.638;18.966;2023-01-19T15:14:42;1.93;104.85
71254;HTU21D;59019;47.638;18.966;2023-01-19T15:17:18;1.72;104.98
71254;HTU21D;59019;47.638;18.966;2023-01-19T15:19:52;1.87;105.14
71254;HTU21D;59019;47.638;18.966;2023-01-19T15:22:19;1.82;105.12
71254;HTU21D;59019;47.638;18.966;2023-01-19T15:24:56;1.80;105.34
71254;HTU21D;59019;47.638;18.966;2023-01-19T15:27:26;1.63;105.48
71254;HTU21D;59019;47.638;18.966;2023-01-19T15:29:53;1.82;105.82
71254;HTU21D;59019;47.638;18.966;2023-01-19T15:32:19;1.93;105.40
71254;HTU21D;59019;47.638;18.966;2023-01-19T15:34:44;1.98;104.86
71254;HTU21D;59019;47.638;18.966;2023-01-19T15:37:10;1.97;104.56
71254;HTU21D;59019;47.638;18.966;2023-01-19T15:39:35;1.81;104.87
71254;HTU21D;59019;47.638;18.966;2023-01-19T15:42:01;1.88;104.92
71254;HTU21D;59019;47.638;18.966;2023-01-19T15:44:27;1.84;104.95
71254;HTU21D;59019;47.638;18.966;2023-01-19T15:46:55;1.80;104.87
71254;HTU21D;59019;47.638;18.966;2023-01-19T15:49:21;1.69;105.37
71254;HTU21D;59019;47.638;18.966;2023-01-19T15:51:47;1.83;105.47
71254;HTU21D;59019;47.638;18.966;2023-01-19T15:54:14;1.70;105.37
71254;HTU21D;59019;47.638;18.966;2023-01-19T15:56:40;1.75;105.83
71254;HTU21D;59019;47.638;18.966;2023-01-19T15:59:08;1.91;105.28
71254;HTU21D;59019;47.638;18.966;2023-01-19T16:01:35;1.86;104.86
71254;HTU21D;59019;47.638;18.966;2023-01-19T16:04:05;1.95;104.92
71254;HTU21D;59019;47.638;18.966;2023-01-19T16:06:32;1.93;104.89
71254;HTU21D;59019;47.638;18.966;2023-01-19T16:08:59;1.81;104.79
71254;HTU21D;59019;47.638;18.966;2023-01-19T16:11:28;1.78;105.34
71254;HTU21D;59019;47.638;18.966;2023-01-19T16:13:54;1.94;105.37
71254;HTU21D;59019;47.638;18.966;2023-01-19T16:16:22;1.75;105.28
71254;HTU21D;59019;47.638;18.966;2023-01-19T16:18:48;1.80;105.47
71254;HTU21D;59019;47.638;18.966;2023-01-19T16:21:14;1.82;105.36
71254;HTU21D;59019;47.638;18.966;2023-01-19T16:23:40;1.93;105.06
71254;HTU21D;59019;47.638;18.966;2023-01-19T16:26:19;1.85;104.86
71254;HTU21D;59019;47.638;18.966;2023-01-19T16:28:46;1.80;104.94
71254;HTU21D;59019;47.638;18.966;2023-01-19T16:31:12;1.80;105.37
71254;HTU21D;59019;47.638;18.966;2023-01-19T16:33:39;1.87;104.94
71254;HTU21D;59019;47.638;18.966;2023-01-19T16:36:37;1.87;104.73
71254;HTU21D;59019;47.638;18.966;2023-01-19T16:39:13;1.84;104.60
71254;HTU21D;59019;47.638;18.966;2023-01-19T16:41:39;1.87;104.71
71254;HTU21D;59019;47.638;18.966;2023-01-19T16:44:05;1.70;104.77
71254;HTU21D;59019;47.638;18.966;2023-01-19T16:46:33;1.73;105.12
71254;HTU21D;59019;47.638;18.966;2023-01-19T16:49:10;1.86;104.97
71254;HTU21D;59019;47.638;18.966;2023-01-19T16:51:36;1.85;104.31
71254;HTU21D;59019;47.638;18.966;2023-01-19T16:54:02;1.88;104.50
71254;HTU21D;59019;47.638;18.966;2023-01-19T16:56:27;1.99;104.12